Time;durP1;ratioP1;P1;durP2;ratioP2;P2;SDS_P1;SDS_P2;PMS_P1;PMS_P2;Temp;Humidity;BMP_temperature;BMP_pressure;BME280_temperature;BME280_humidity;BME280_pressure;Samples;Min_cycle;Max_cycle;Signal;HPM_P1;HPM_P2
2022/05/27 00:00:06;;;;;;;5.70;2.40;;;;;;;14.47;77.03;101863.34;6497646;23;20035;-79
2022/05/27 00:02:37;;;;;;;5.13;2.78;;;;;;;14.47;77.12;101863.34;6496882;23;20015;-85
2022/05/27 00:05:10;;;;;;;7.03;3.20;;;;;;;14.49;77.23;101866.84;6498008;23;20004;-78
2022/05/27 00:07:41;;;;;;;6.38;2.47;;;;;;;14.46;77.14;101859.03;6498431;23;20007;-81
2022/05/27 00:10:14;;;;;;;6.67;2.67;;;;;;;14.48;77.08;101857.25;6498779;23;20004;-81
2022/05/27 00:12:45;;;;;;;;;;;;;;;14.59;76.13;101852.75;6498649;23;20083;-81
2022/05/27 00:15:17;;;;;;;7.55;3.00;;;;;;;14.52;76.73;101855.44;6497837;23;19943;-79
2022/05/27 00:17:48;;;;;;;8.77;2.77;;;;;;;14.50;76.92;101852.84;6497683;23;20004;-77
2022/05/27 00:20:20;;;;;;;7.07;2.63;;;;;;;14.47;77.16;101852.88;6499849;23;20325;-84
2022/05/27 00:22:52;;;;;;;7.20;2.95;;;;;;;14.50;77.19;101847.59;6471098;23;20008;-83
2022/05/27 00:25:23;;;;;;;7.17;2.60;;;;;;;14.45;77.52;101841.53;6499692;23;20015;-77
2022/05/27 00:27:55;;;;;;;8.10;2.77;;;;;;;14.45;77.91;101849.41;6499865;23;20007;-80
2022/05/27 00:30:27;;;;;;;7.75;2.83;;;;;;;14.45;77.93;101852.03;6498316;23;20099;-80
2022/05/27 00:32:59;;;;;;;7.97;3.22;;;;;;;14.39;78.32;101839.88;6499144;23;20472;-79
2022/05/27 00:35:30;;;;;;;7.00;2.80;;;;;;;14.42;78.51;101833.69;6500139;23;20000;-79
2022/05/27 00:38:02;;;;;;;9.07;3.43;;;;;;;14.42;78.13;101841.56;6500513;23;20004;-80
2022/05/27 00:40:42;;;;;;;10.07;3.13;;;;;;;14.41;78.20;101842.47;6500205;23;20008;-81
2022/05/27 00:43:14;;;;;;;11.85;3.38;;;;;;;14.41;78.45;101842.47;6499451;23;20007;-83
2022/05/27 00:46:00;;;;;;;8.27;2.60;;;;;;;14.46;78.04;101832.78;6497993;23;20043;-81
2022/05/27 00:48:36;;;;;;;9.98;3.00;;;;;;;14.41;78.46;101842.47;6497479;23;20016;-81
2022/05/27 00:51:13;;;;;;;7.18;2.58;;;;;;;14.41;78.52;101838.09;6498037;23;20010;-82
2022/05/27 00:53:57;;;;;;;6.00;2.50;;;;;;;14.43;78.41;101827.56;6498863;23;19996;-83
2022/05/27 00:56:33;;;;;;;8.55;3.50;;;;;;;14.44;78.60;101837.19;6498644;23;20004;-80
2022/05/27 00:59:11;;;;;;;10.50;3.15;;;;;;;14.40;78.94;101827.59;6498776;23;20000;-83
2022/05/27 01:01:43;;;;;;;9.05;3.20;;;;;;;14.33;79.41;101825.94;6498325;23;20444;-81
2022/05/27 01:04:15;;;;;;;5.90;2.57;;;;;;;14.32;79.86;101822.44;6497610;23;20008;-79
2022/05/27 01:06:47;;;;;;;11.35;3.28;;;;;;;14.34;80.12;101825.91;6499030;23;20008;-82
2022/05/27 01:09:19;;;;;;;12.53;3.93;;;;;;;14.27;81.86;101826.88;6498975;23;20013;-78
2022/05/27 01:12:15;;;;;;;10.02;3.83;;;;;;;14.09;83.19;101824.44;6498177;23;20008;-82
2022/05/27 01:15:05;;;;;;;11.70;3.78;;;;;;;13.96;83.60;101824.59;6498246;23;20004;-77
2022/05/27 01:17:47;;;;;;;9.45;3.25;;;;;;;13.94;84.27;101826.38;6498196;23;20079;-77
2022/05/27 01:20:46;;;;;;;12.02;4.68;;;;;;;13.90;84.98;101827.28;6497293;23;20000;-77
2022/05/27 01:23:27;;;;;;;12.05;3.50;;;;;;;13.88;85.98;101828.16;6497696;23;20004;-79
2022/05/27 01:26:19;;;;;;;11.48;5.38;;;;;;;13.88;86.26;101826.44;6498101;23;20011;-79
2022/05/27 01:29:06;;;;;;;13.15;4.28;;;;;;;13.83;86.60;101821.22;6498851;23;20011;-84
2022/05/27 01:31:43;;;;;;;10.73;4.47;;;;;;;13.81;87.24;101828.25;6499402;23;20416;-79
2022/05/27 01:34:33;;;;;;;12.93;4.53;;;;;;;13.63;89.38;101821.41;6498011;23;20004;-80
2022/05/27 01:37:17;;;;;;;10.25;3.92;;;;;;;13.40;90.62;101824.22;6498147;23;20004;-79
2022/05/27 01:39:49;;;;;;;16.50;5.82;;;;;;;13.34;91.75;101821.66;6498485;23;20041;-81
2022/05/27 01:42:37;;;;;;;15.70;5.70;;;;;;;13.26;92.53;101819.03;6500371;23;20030;-81
2022/05/27 01:45:21;;;;;;;13.63;5.43;;;;;;;13.41;91.74;101835.56;6498644;23;20083;-77
2022/05/27 01:47:54;;;;;;;14.07;5.60;;;;;;;13.30;92.53;101827.78;6497687;22;20131;-81
2022/05/27 01:50:34;;;;;;;10.32;5.20;;;;;;;13.25;93.85;101813.81;6497068;23;20418;-82
2022/05/27 01:53:28;;;;;;;13.40;5.20;;;;;;;13.23;94.71;101813.84;6497322;23;20019;-81
2022/05/27 01:56:10;;;;;;;15.70;5.97;;;;;;;13.20;95.02;101821.75;6476543;23;20497;-76
2022/05/27 01:58:47;;;;;;;12.57;5.30;;;;;;;13.14;95.79;101819.16;6498262;23;20004;-83
2022/05/27 02:01:28;;;;;;;14.80;5.28;;;;;;;13.13;96.31;101814.78;6504514;23;20000;-81
2022/05/27 02:04:08;;;;;;;16.85;6.57;;;;;;;13.11;97.43;101821.78;6507799;23;20066;-83
2022/05/27 02:06:50;;;;;;;15.98;5.70;;;;;;;13.00;98.50;101819.25;6505941;23;20014;-83
2022/05/27 02:09:28;;;;;;;15.88;6.35;;;;;;;12.92;99.58;101826.28;6503481;23;20075;-77
2022/05/27 02:12:08;;;;;;;17.13;6.50;;;;;;;12.84;100.00;101821.06;6500803;23;20014;-78
2022/05/27 02:15:01;;;;;;;18.70;7.68;;;;;;;12.80;100.00;101828.94;6499809;23;20008;-78
2022/05/27 02:17:37;;;;;;;19.60;7.72;;;;;;;12.73;100.00;101821.13;6500268;23;20008;-80
2022/05/27 02:20:11;;;;;;;18.13;7.38;;;;;;;12.76;100.00;101820.25;6501095;23;20334;-82
2022/05/27 02:23:12;;;;;;;18.52;7.03;;;;;;;12.68;100.00;101812.44;6499550;23;20007;-81
2022/05/27 02:25:46;;;;;;;20.52;8.27;;;;;;;12.69;100.00;101815.94;6499333;23;20004;-78
2022/05/27 02:28:22;;;;;;;16.60;8.30;;;;;;;12.64;100.00;101809.84;6499481;23;20062;-78
2022/05/27 02:31:05;;;;;;;13.80;7.22;;;;;;;12.65;100.00;101811.59;6499976;23;20015;-74
2022/05/27 02:36:54;;;;;;;15.98;8.60;;;;;;;12.58;100.00;101814.22;6498673;23;20035;-77
2022/05/27 02:39:26;;;;;;;19.52;8.27;;;;;;;12.59;100.00;101812.50;6498880;23;20008;-76
2022/05/27 02:42:14;;;;;;;15.23;8.35;;;;;;;12.56;100.00;101804.66;6499599;23;20770;-79
2022/05/27 02:45:05;;;;;;;24.83;10.02;;;;;;;12.57;100.00;101799.44;6498572;23;20318;-80
2022/05/27 02:47:46;;;;;;;17.35;9.38;;;;;;;12.65;100.00;101806.34;6499450;23;20087;-82
2022/05/27 02:50:33;;;;;;;18.70;9.07;;;;;;;12.57;100.00;101798.53;6499083;23;20023;-77
2022/05/27 02:53:22;;;;;;;17.85;9.52;;;;;;;12.59;100.00;101808.13;6497838;23;20012;-79
2022/05/27 02:56:12;;;;;;;14.88;9.57;;;;;;;12.57;100.00;101796.81;6498924;23;20058;-75
2022/05/27 02:58:44;;;;;;;17.00;9.38;;;;;;;12.60;100.00;101803.75;6498851;23;20011;-75
2022/05/27 03:01:16;;;;;;;16.73;8.93;;;;;;;12.53;100.00;101807.28;6501138;23;20000;-78
2022/05/27 03:03:48;;;;;;;16.40;9.95;;;;;;;12.50;100.00;101799.47;6501739;23;20004;-76
2022/05/27 03:06:36;;;;;;;18.47;9.37;;;;;;;12.50;100.00;101791.63;6501760;23;20004;-82
2022/05/27 03:09:20;;;;;;;16.95;10.45;;;;;;;12.50;100.00;101799.47;6499821;23;20250;-82
2022/05/27 03:12:30;;;;;;;13.30;10.30;;;;;;;12.49;100.00;101793.34;6500277;23;20008;-79
2022/05/27 03:15:24;;;;;;;16.33;10.85;;;;;;;12.48;100.00;101783.78;6499039;23;20303;-78
2022/05/27 03:18:26;;;;;;;15.15;10.27;;;;;;;12.48;100.00;101785.53;6500983;23;20082;-82
2022/05/27 03:21:33;;;;;;;14.65;10.90;;;;;;;12.50;100.00;101795.09;6501407;23;20008;-82
2022/05/27 03:24:16;;;;;;;17.25;11.20;;;;;;;12.50;100.00;101796.84;6499861;23;20008;-81
2022/05/27 03:27:12;;;;;;;18.73;11.68;;;;;;;12.54;100.00;101795.94;6499755;23;20012;-77
2022/05/27 03:30:04;;;;;;;14.05;11.85;;;;;;;12.50;100.00;101802.06;6499186;23;20008;-81
2022/05/27 03:32:49;;;;;;;16.00;12.10;;;;;;;12.49;100.00;101800.31;6498331;23;20016;-76
2022/05/27 03:35:44;;;;;;;16.05;12.63;;;;;;;12.51;100.00;101793.34;6498769;23;20065;-79
2022/05/27 03:38:24;;;;;;;19.52;12.30;;;;;;;12.51;100.00;101804.69;6498664;23;20027;-79
2022/05/27 03:41:19;;;;;;;16.00;13.70;;;;;;;12.50;100.00;101791.63;6497481;23;20024;-76
2022/05/27 03:43:53;;;;;;;18.58;12.48;;;;;;;12.57;100.00;101795.91;6499163;23;20008;-80
2022/05/27 03:46:33;;;;;;;21.98;15.55;;;;;;;12.53;100.00;101799.44;6501718;23;20015;-77
2022/05/27 03:49:06;;;;;;;16.25;14.23;;;;;;;12.59;100.00;101812.50;6500148;23;20012;-78
2022/05/27 03:51:50;;;;;;;20.00;14.93;;;;;;;12.68;100.00;101807.19;6499940;23;20534;-79
2022/05/27 03:54:22;;;;;;;18.85;14.68;;;;;;;12.68;100.00;101814.19;6471815;23;20100;-79
2022/05/27 03:56:54;;;;;;;16.60;13.30;;;;;;;12.67;100.00;101815.94;6498761;23;19996;-80
2022/05/27 03:59:26;;;;;;;14.07;11.90;;;;;;;12.60;100.00;101809.00;6498307;23;20015;-80
2022/05/27 04:01:57;;;;;;;14.38;9.65;;;;;;;12.56;100.00;101802.91;6499138;23;20444;-81
2022/05/27 04:04:29;;;;;;;10.60;6.90;;;;;;;12.39;100.00;101802.97;6499805;23;20004;-75
2022/05/27 04:07:01;;;;;;;9.25;6.22;;;;;;;12.32;100.00;101797.78;6498113;23;20000;-79
2022/05/27 04:09:33;;;;;;;9.87;5.70;;;;;;;12.28;100.00;101802.13;6497971;23;20008;-79
2022/05/27 04:12:05;;;;;;;9.68;5.38;;;;;;;12.22;100.00;101802.19;6497599;23;20058;-78
2022/05/27 04:14:36;;;;;;;9.05;5.70;;;;;;;12.22;100.00;101807.41;6497327;23;20012;-77
2022/05/27 04:19:59;;;;;;;8.70;5.40;;;;;;;12.24;100.00;101810.03;6499174;23;20013;-77
2022/05/27 04:22:30;;;;;;;10.98;6.97;;;;;;;12.30;100.00;101812.59;6496957;23;20004;-80
2022/05/27 04:25:02;;;;;;;12.83;7.43;;;;;;;12.34;100.00;101809.97;6497566;23;20008;-82
2022/05/27 04:27:35;;;;;;;10.00;8.32;;;;;;;12.37;100.00;101812.56;6497101;23;20373;-81
2022/05/27 04:30:07;;;;;;;12.13;9.38;;;;;;;12.48;100.00;101816.91;6495351;23;20004;-81
2022/05/27 04:32:40;;;;;;;13.52;9.98;;;;;;;12.53;100.00;101812.53;6495982;23;20389;-78
2022/05/27 04:35:11;;;;;;;15.65;10.60;;;;;;;12.63;100.00;101819.44;6497060;23;20456;-80
2022/05/27 04:37:42;;;;;;;12.20;9.90;;;;;;;12.70;100.00;101821.16;6497703;23;20004;-80
2022/05/27 04:40:14;;;;;;;15.67;11.00;;;;;;;12.69;100.00;101816.78;6497172;23;20004;-79
2022/05/27 04:42:45;;;;;;;17.80;12.20;;;;;;;12.74;100.00;101817.63;6496955;23;20103;-84
2022/05/27 04:45:17;;;;;;;17.07;12.03;;;;;;;12.75;100.00;101819.38;6499962;23;20008;-83
2022/05/27 04:47:48;;;;;;;19.17;13.87;;;;;;;12.83;100.00;101815.84;6498939;23;20449;-82
2022/05/27 04:50:20;;;;;;;18.53;11.63;;;;;;;12.84;100.00;101820.22;6499861;23;20004;-82
2022/05/27 04:52:51;;;;;;;16.53;12.87;;;;;;;12.88;100.00;101816.69;6499304;23;20076;-82
2022/05/27 04:55:23;;;;;;;17.60;12.77;;;;;;;12.93;100.00;101820.16;6499082;23;20422;-79
2022/05/27 04:57:54;;;;;;;21.83;13.37;;;;;;;12.98;100.00;101825.38;6497715;23;20109;-79
2022/05/27 05:00:39;;;;;;;20.93;12.93;;;;;;;13.04;100.00;101830.53;6497200;23;20014;-80
2022/05/27 05:03:12;;;;;;;24.90;13.35;;;;;;;13.13;100.00;101823.50;6497241;23;20389;-81
2022/05/27 05:05:44;;;;;;;22.75;13.00;;;;;;;13.17;100.00;101824.38;6497596;23;20004;-80
2022/05/27 05:08:33;;;;;;;22.20;13.10;;;;;;;13.22;100.00;101834.81;6496609;23;20520;-80
2022/05/27 05:11:05;;;;;;;18.60;13.02;;;;;;;13.29;100.00;101832.13;6496743;23;20183;-80
2022/05/27 05:13:36;;;;;;;;;;;;;;;13.37;100.00;101834.72;6498116;23;20330;-80
2022/05/27 05:16:09;;;;;;;21.60;12.87;;;;;;;13.47;100.00;101835.50;6497112;23;20014;-81
2022/05/27 05:18:40;;;;;;;20.98;13.05;;;;;;;13.58;100.00;101832.81;6498461;23;20312;-80
2022/05/27 05:21:15;;;;;;;22.97;13.90;;;;;;;13.59;100.00;101832.81;6498185;23;20004;-78
2022/05/27 05:23:46;;;;;;;22.75;12.27;;;;;;;13.56;100.00;101842.44;6498240;23;20004;-78
2022/05/27 05:26:17;;;;;;;21.67;14.33;;;;;;;13.54;100.00;101836.34;6496959;23;20032;-80
2022/05/27 05:28:49;;;;;;;26.70;13.93;;;;;;;13.55;100.00;101844.19;6469801;23;20073;-77
2022/05/27 05:31:20;;;;;;;23.83;12.10;;;;;;;13.61;100.00;101856.38;6496096;23;20016;-77
2022/05/27 05:33:51;;;;;;;25.23;13.30;;;;;;;13.53;100.00;101858.19;6496140;23;20414;-80
2022/05/27 05:36:23;;;;;;;22.23;13.03;;;;;;;13.57;100.00;101863.41;6496120;23;20564;-80
2022/05/27 05:38:55;;;;;;;29.13;13.17;;;;;;;13.59;100.00;101874.72;6496444;23;20032;-78
2022/05/27 05:41:38;;;;;;;26.90;11.02;;;;;;;13.67;100.00;101866.81;6496147;23;20008;-79
2022/05/27 05:44:09;;;;;;;;;;;;;;;13.76;100.00;101857.97;6496335;23;20138;-79
2022/05/27 05:46:42;;;;;;;27.23;11.25;;;;;;;13.81;100.00;101864.03;6469638;23;19946;-82
2022/05/27 05:49:13;;;;;;;28.38;10.27;;;;;;;13.89;100.00;101869.22;6491331;23;20460;-78
2022/05/27 05:51:45;;;;;;;19.03;8.80;;;;;;;13.99;100.00;101869.13;6496030;23;20016;-81
2022/05/27 05:54:17;;;;;;;22.77;9.03;;;;;;;14.09;100.00;101879.50;6496249;23;20004;-81
2022/05/27 05:56:49;;;;;;;17.10;8.05;;;;;;;14.11;100.00;101876.00;6494706;23;20046;-81
2022/05/27 05:59:22;;;;;;;16.37;7.40;;;;;;;14.03;100.00;101880.44;6496380;23;20342;-76
2022/05/27 06:01:54;;;;;;;19.40;7.05;;;;;;;14.13;100.00;101879.47;6497002;23;20008;-81
2022/05/27 06:04:25;;;;;;;17.57;7.70;;;;;;;14.19;100.00;101873.31;6494987;23;20011;-75
2022/05/27 06:06:57;;;;;;;16.23;7.70;;;;;;;14.28;100.00;101874.94;6495275;23;20441;-79
2022/05/27 06:09:28;;;;;;;13.97;6.33;;;;;;;14.36;98.84;101865.22;6495815;23;20012;-81
2022/05/27 06:12:02;;;;;;;15.90;7.17;;;;;;;14.29;96.75;101860.97;6494424;23;20266;-79
2022/05/27 06:14:35;;;;;;;17.33;6.10;;;;;;;14.23;97.99;101875.88;6495665;23;20012;-80
2022/05/27 06:17:06;;;;;;;14.07;5.80;;;;;;;14.17;96.28;101877.72;6496655;23;20027;-77
2022/05/27 06:19:38;;;;;;;17.87;6.23;;;;;;;14.13;96.46;101871.59;6494924;23;20075;-81
2022/05/27 06:22:09;;;;;;;12.60;5.83;;;;;;;14.15;96.50;101874.22;6496752;23;20019;-81
2022/05/27 06:24:40;;;;;;;13.97;4.90;;;;;;;14.16;95.83;101873.34;6497278;23;20062;-77
2022/05/27 06:27:12;;;;;;;12.10;4.63;;;;;;;14.10;94.02;101887.34;6496932;23;20007;-80
2022/05/27 06:35:25;;;;;;;12.02;5.10;;;;;;;14.26;93.72;101884.59;6496196;23;20016;-76
2022/05/27 06:37:56;;;;;;;13.35;4.65;;;;;;;14.35;93.52;101892.38;6496528;23;20008;-77
2022/05/27 06:40:28;;;;;;;13.97;5.23;;;;;;;14.38;90.71;101894.97;6491844;23;20027;-75
2022/05/27 06:42:59;;;;;;;10.47;4.37;;;;;;;14.41;90.63;101894.94;6497305;23;20004;-78
2022/05/27 06:45:31;;;;;;;13.10;4.83;;;;;;;14.45;91.23;101894.00;6496016;23;20079;-80
2022/05/27 06:48:06;;;;;;;14.60;4.77;;;;;;;14.45;89.71;101896.63;6496046;23;20094;-81
2022/05/27 06:50:37;;;;;;;12.90;4.47;;;;;;;14.54;88.52;101888.66;6496235;23;20023;-80
2022/05/27 06:53:09;;;;;;;14.67;4.20;;;;;;;14.50;84.48;101894.81;6496012;23;20008;-81
2022/05/27 06:55:40;;;;;;;15.33;3.57;;;;;;;14.55;86.70;101895.66;6496926;23;20083;-77
2022/05/27 06:58:11;;;;;;;9.03;3.03;;;;;;;14.61;85.23;101899.97;6499282;23;20007;-85
2022/05/27 07:00:43;;;;;;;13.23;3.23;;;;;;;14.66;84.18;101894.69;6499564;23;20034;-82
2022/05/27 07:03:14;;;;;;;11.17;3.90;;;;;;;14.90;85.64;101904.00;6470327;23;20089;-82
2022/05/27 07:05:45;;;;;;;10.27;4.27;;;;;;;15.04;82.50;101903.81;6498909;23;20000;-82
2022/05/27 07:08:17;;;;;;;9.53;3.40;;;;;;;15.18;80.99;101908.88;6500851;23;20004;-83
2022/05/27 07:10:49;;;;;;;10.70;3.05;;;;;;;15.31;79.74;101906.06;6500556;23;20011;-82
2022/05/27 07:13:20;;;;;;;9.23;3.00;;;;;;;15.40;76.31;101906.81;6502217;23;20008;-85
2022/05/27 07:15:52;;;;;;;10.63;3.50;;;;;;;15.58;76.67;101901.25;6502764;23;20004;-78
2022/05/27 07:18:23;;;;;;;15.67;4.00;;;;;;;15.75;76.78;101908.03;6500796;23;20004;-82
2022/05/27 07:21:06;;;;;;;11.50;3.92;;;;;;;15.81;79.25;101900.94;6499112;23;20093;-83
2022/05/27 07:23:37;;;;;;;14.50;4.28;;;;;;;15.84;73.43;101907.88;6500631;23;20122;-79
2022/05/27 07:26:09;;;;;;;8.60;3.27;;;;;;;15.79;75.23;101907.09;6500361;23;20039;-77
2022/05/27 07:28:40;;;;;;;10.93;3.10;;;;;;;15.62;71.77;101909.97;6501173;23;20445;-87
2022/05/27 07:31:11;;;;;;;8.00;3.50;;;;;;;15.50;71.71;101906.66;6503794;23;20011;-84
2022/05/27 07:33:44;;;;;;;10.37;4.33;;;;;;;15.50;72.08;101914.53;6505130;23;20094;-83
2022/05/27 07:36:15;;;;;;;11.43;4.10;;;;;;;15.57;72.54;101911.78;6505051;23;20008;-87
2022/05/27 07:38:51;;;;;;;8.70;3.47;;;;;;;15.42;71.83;101902.41;6507674;23;20004;-75
2022/05/27 07:41:23;;;;;;;8.32;3.60;;;;;;;15.56;71.97;101904.81;6507129;23;20008;-80
2022/05/27 07:43:55;;;;;;;10.27;3.13;;;;;;;15.70;71.76;101915.97;6507271;23;20512;-81
2022/05/27 07:46:29;;;;;;;13.73;4.85;;;;;;;15.80;71.60;101908.84;6505236;23;20004;-81
2022/05/27 07:49:01;;;;;;;9.85;3.97;;;;;;;15.89;70.96;101918.31;6503490;23;20063;-80
2022/05/27 07:51:32;;;;;;;7.97;3.70;;;;;;;15.68;67.02;101907.22;6503825;23;20027;-85
2022/05/27 07:54:04;;;;;;;11.53;3.10;;;;;;;15.74;68.52;101922.91;6505883;23;20004;-80
2022/05/27 07:56:35;;;;;;;9.80;3.87;;;;;;;15.86;69.32;101925.38;6505914;23;20023;-85
2022/05/27 07:59:07;;;;;;;12.13;3.50;;;;;;;15.89;69.06;101919.22;6507159;23;20004;-89
2022/05/27 08:01:39;;;;;;;12.50;3.33;;;;;;;15.74;69.98;101914.16;6504370;23;20035;-86
2022/05/27 08:04:11;;;;;;;12.40;4.10;;;;;;;15.92;70.31;101916.50;6506873;23;20058;-79
2022/05/27 08:06:42;;;;;;;10.10;3.67;;;;;;;16.18;68.80;101915.19;6505757;23;20000;-89
2022/05/27 08:09:15;;;;;;;14.17;4.00;;;;;;;16.28;67.33;101916.78;6505375;23;20083;-79
2022/05/27 08:11:46;;;;;;;7.38;3.65;;;;;;;16.41;67.42;101917.41;6501803;23;20015;-86
2022/05/27 08:14:19;;;;;;;13.97;4.03;;;;;;;16.85;66.14;101922.69;6505827;23;20004;-86
2022/05/27 08:16:50;;;;;;;7.68;2.90;;;;;;;16.94;63.03;101930.44;6507610;23;20020;-85
2022/05/27 08:19:22;;;;;;;9.13;3.03;;;;;;;16.50;66.48;101926.88;6505574;23;20054;-86
2022/05/27 08:21:53;;;;;;;8.70;3.47;;;;;;;16.17;69.58;101935.38;6505055;23;20038;-84
2022/05/27 08:24:24;;;;;;;9.23;3.07;;;;;;;16.04;70.37;101945.25;6506462;23;20010;-85
2022/05/27 08:26:56;;;;;;;7.67;3.37;;;;;;;16.01;68.40;101954.94;6505126;23;20008;-86
2022/05/27 08:29:28;;;;;;;8.70;3.60;;;;;;;16.03;70.74;101940.00;6505223;23;20008;-79
2022/05/27 08:32:03;;;;;;;11.15;3.00;;;;;;;16.20;68.98;101939.72;6505012;23;20004;-86
2022/05/27 08:40:45;;;;;;;7.60;3.25;;;;;;;16.96;65.17;101947.06;6507391;23;20013;-86
2022/05/27 08:43:31;;;;;;;8.05;3.03;;;;;;;17.26;62.21;101926.22;6385091;23;20057;-85
2022/05/27 08:46:21;;;;;;;8.68;3.13;;;;;;;17.47;62.29;101938.03;6384636;23;20101;-85
2022/05/27 08:48:58;;;;;;;10.35;3.65;;;;;;;16.98;61.91;101941.75;6377377;23;20057;-82
2022/05/27 08:51:41;;;;;;;8.73;3.30;;;;;;;17.10;63.15;101945.00;6378028;23;20089;-87
2022/05/27 08:54:22;;;;;;;;;;;;;;;17.37;64.10;101942.66;6376803;23;20068;-82
2022/05/27 09:00:17;;;;;;;10.40;3.75;;;;;;;17.70;64.48;101941.91;6382981;23;20013;-79
2022/05/27 09:02:57;;;;;;;11.45;3.72;;;;;;;17.80;61.76;101949.53;6344432;23;20018;-84
2022/05/27 09:05:40;;;;;;;8.15;2.90;;;;;;;17.73;62.28;101950.59;6347601;23;20014;-84
2022/05/27 09:08:25;;;;;;;9.68;3.58;;;;;;;17.56;56.91;101956.25;6346043;23;20014;-85
2022/05/27 09:11:30;;;;;;;7.25;3.40;;;;;;;17.47;57.00;101954.72;6341688;23;20010;-83
2022/05/27 09:14:07;;;;;;;13.07;3.35;;;;;;;17.50;54.04;101964.34;6341428;23;20386;-83
2022/05/27 09:16:49;;;;;;;9.00;3.03;;;;;;;17.93;54.54;101952.78;6340040;23;20029;-84
2022/05/27 09:19:25;;;;;;;9.63;2.90;;;;;;;18.08;55.08;101953.28;6353316;23;20009;-85
2022/05/27 09:22:20;;;;;;;9.43;3.80;;;;;;;17.89;53.47;101966.97;6402975;23;20017;-80
2022/05/27 09:25:00;;;;;;;12.10;2.80;;;;;;;17.52;53.02;101956.38;6402651;23;20075;-84
2022/05/27 09:28:05;;;;;;;10.23;3.33;;;;;;;17.88;52.91;101967.00;6401896;23;20009;-86
2022/05/27 09:30:37;;;;;;;13.77;3.85;;;;;;;17.57;53.35;101965.91;6407370;23;20016;-87
2022/05/27 09:33:11;;;;;;;9.10;2.97;;;;;;;17.36;53.85;101974.31;6404166;23;20092;-87
2022/05/27 09:35:58;;;;;;;11.18;3.47;;;;;;;17.23;53.46;101979.84;6400905;23;20024;-85
2022/05/27 09:38:32;;;;;;;7.75;3.53;;;;;;;17.62;52.77;101992.19;6424229;23;20492;-78
2022/05/27 09:41:23;;;;;;;8.05;2.80;;;;;;;17.69;53.58;101983.22;6498434;23;20062;-84
2022/05/27 09:44:21;;;;;;;13.95;4.22;;;;;;;17.92;51.66;101977.44;6498062;23;20358;-81
2022/05/27 09:46:52;;;;;;;8.45;3.33;;;;;;;18.02;52.57;102001.81;6498600;23;20012;-83
2022/05/27 09:49:24;;;;;;;9.60;3.20;;;;;;;17.92;53.17;101997.66;6478322;23;20020;-83
2022/05/27 09:51:55;;;;;;;8.77;3.07;;;;;;;18.31;52.69;101990.53;6498667;22;20004;-83
2022/05/27 09:54:44;;;;;;;8.70;3.03;;;;;;;18.64;51.22;101993.16;6498026;22;20008;-81
2022/05/27 09:57:23;;;;;;;10.18;3.95;;;;;;;18.23;48.63;102001.28;6498516;22;20004;-82
2022/05/27 10:00:00;;;;;;;6.97;2.95;;;;;;;18.30;45.96;102012.53;6497084;23;20032;-78
2022/05/27 10:02:37;;;;;;;12.02;3.50;;;;;;;19.32;45.59;101993.91;6498954;22;20386;-81
2022/05/27 10:05:22;;;;;;;11.20;3.50;;;;;;;20.90;43.23;102000.19;6496322;23;19999;-79
2022/05/27 10:07:57;;;;;;;8.80;2.90;;;;;;;20.11;41.13;102002.91;6498154;22;20011;-81
2022/05/27 10:10:34;;;;;;;15.15;3.40;;;;;;;20.05;43.45;101989.88;6500285;22;20334;-82
2022/05/27 10:13:30;;;;;;;9.77;3.28;;;;;;;19.45;42.29;102005.84;6509894;22;20057;-82
2022/05/27 10:16:11;;;;;;;9.32;2.80;;;;;;;20.51;39.70;102003.28;6514373;22;20005;-80
2022/05/27 10:18:44;;;;;;;12.18;3.50;;;;;;;19.97;38.81;102013.94;6514081;22;20373;-79
2022/05/27 10:21:18;;;;;;;8.20;3.42;;;;;;;19.89;40.47;101989.50;6511168;22;20036;-80
2022/05/27 10:23:54;;;;;;;11.73;3.50;;;;;;;20.78;39.77;101998.84;6512381;22;20014;-84
2022/05/27 10:26:27;;;;;;;11.82;3.70;;;;;;;19.68;38.91;102004.25;6516061;22;20422;-82
2022/05/27 10:29:06;;;;;;;13.68;4.72;;;;;;;19.23;40.26;101992.41;6514449;22;20008;-78
2022/05/27 10:31:49;;;;;;;15.68;3.58;;;;;;;19.76;39.78;101988.19;6510048;22;20014;-81
2022/05/27 10:34:42;;;;;;;9.75;3.35;;;;;;;19.38;41.11;101999.00;6513009;23;20495;-84
2022/05/27 10:37:33;;;;;;;9.05;3.85;;;;;;;19.26;42.41;102005.53;6509339;22;20011;-82
2022/05/27 10:40:44;;;;;;;8.88;2.97;;;;;;;19.82;41.03;102002.06;6508174;23;20008;-81
2022/05/27 10:43:38;;;;;;;8.27;3.88;;;;;;;21.01;37.85;102005.97;6503123;23;20066;-89
2022/05/27 10:46:20;;;;;;;14.05;4.22;;;;;;;20.49;38.02;102018.38;6505910;22;20031;-86
2022/05/27 10:49:13;;;;;;;12.20;4.20;;;;;;;20.48;39.34;102016.66;6495243;22;20060;-83
2022/05/27 10:51:57;;;;;;;17.15;4.78;;;;;;;19.33;42.50;101997.41;6498645;23;20397;-78
2022/05/27 10:54:49;;;;;;;14.35;3.88;;;;;;;19.81;39.76;102010.06;6500146;22;20027;-79
2022/05/27 11:04:04;;;;;;;8.57;3.15;;;;;;;21.13;36.93;102004.63;6498593;23;20283;-82
2022/05/27 11:06:48;;;;;;;12.30;3.65;;;;;;;21.16;34.99;102006.31;6465129;23;20517;-81
2022/05/27 11:09:48;;;;;;;10.15;3.50;;;;;;;22.03;33.73;102010.81;6464130;23;20187;-84
2022/05/27 11:15:46;;;;;;;10.02;3.20;;;;;;;22.53;32.96;102016.72;6460449;23;20013;-83
2022/05/27 11:18:30;;;;;;;10.60;3.47;;;;;;;22.34;35.80;102014.00;6463430;23;20013;-86
2022/05/27 11:21:22;;;;;;;10.50;3.88;;;;;;;22.22;34.47;102004.75;6462616;23;20442;-80
2022/05/27 11:24:08;;;;;;;15.63;3.80;;;;;;;22.32;34.25;102018.53;6465409;23;20012;-84
2022/05/27 11:26:54;;;;;;;10.52;3.10;;;;;;;21.75;35.44;102008.44;6466066;23;20126;-78
2022/05/27 11:29:25;;;;;;;12.15;3.95;;;;;;;20.40;36.51;102007.19;6463486;23;20108;-79
2022/05/27 11:32:04;;;;;;;9.10;3.30;;;;;;;20.02;37.99;102005.84;6463150;23;20444;-79
2022/05/27 11:34:57;;;;;;;10.80;3.63;;;;;;;20.09;37.51;102009.16;6463185;23;20012;-79
2022/05/27 11:37:39;;;;;;;12.38;3.70;;;;;;;18.86;41.06;102021.66;6463018;23;20431;-80
2022/05/27 11:40:30;;;;;;;14.02;4.32;;;;;;;19.04;42.33;102021.13;6466833;23;20008;-81
2022/05/27 11:43:37;;;;;;;9.18;3.72;;;;;;;19.09;43.55;102007.78;6477405;23;20447;-83
2022/05/27 11:46:36;;;;;;;12.90;4.07;;;;;;;19.03;42.70;102016.78;6498468;22;20711;-81
2022/05/27 11:49:13;;;;;;;9.15;3.67;;;;;;;21.22;38.95;102011.34;6497293;22;20088;-83
2022/05/27 11:52:08;;;;;;;13.38;3.35;;;;;;;21.87;36.87;102015.03;6499129;22;20369;-81
2022/05/27 11:55:17;;;;;;;15.15;4.68;;;;;;;21.79;34.81;102025.09;6499452;23;20011;-79
2022/05/27 11:57:55;;;;;;;14.18;4.20;;;;;;;22.32;35.22;102015.88;6498722;23;20063;-84
2022/05/27 12:00:31;;;;;;;12.50;3.55;;;;;;;24.28;32.30;102026.28;6498700;22;20008;-83
2022/05/27 12:03:25;;;;;;;9.50;3.20;;;;;;;24.71;29.24;102017.88;6499076;22;20000;-82
2022/05/27 12:06:03;;;;;;;13.52;3.70;;;;;;;23.58;30.11;102022.63;6498017;22;20417;-83
2022/05/27 12:08:46;;;;;;;10.10;3.20;;;;;;;21.70;34.35;102023.66;6496429;23;20012;-81
2022/05/27 12:11:27;;;;;;;11.02;4.43;;;;;;;21.63;35.28;102031.00;6498264;22;20008;-84
2022/05/27 12:14:05;;;;;;;12.52;3.70;;;;;;;22.09;34.33;102028.28;6501211;22;20091;-85
2022/05/27 12:16:37;;;;;;;10.13;3.42;;;;;;;23.59;31.74;102024.34;6499115;22;20479;-81
2022/05/27 12:19:13;;;;;;;;;;;;;;;25.41;29.79;102021.22;6497848;22;20009;-81
2022/05/27 12:21:54;;;;;;;10.40;3.38;;;;;;;24.21;30.84;102023.09;6497638;23;19934;-81
2022/05/27 12:24:31;;;;;;;12.57;2.60;;;;;;;24.58;28.68;102025.66;6496586;22;20008;-80
2022/05/27 12:27:04;;;;;;;9.82;3.30;;;;;;;24.36;29.64;102012.59;6497105;22;20448;-80
2022/05/27 12:29:39;;;;;;;11.07;3.72;;;;;;;24.20;31.11;102020.50;6493126;22;20008;-81
2022/05/27 12:32:11;;;;;;;10.90;3.80;;;;;;;23.48;32.56;102025.72;6496422;22;20095;-81
2022/05/27 12:34:50;;;;;;;11.10;4.00;;;;;;;22.70;32.91;102034.56;6496503;22;20004;-79
2022/05/27 12:37:26;;;;;;;9.18;2.97;;;;;;;24.16;30.50;102018.91;6494697;22;20004;-82